| time (UTC) | temp F | wind direction | speed knots | gust knots | rain 1hr in | rain 24hr in | rain mn in | humidity % | barometer mb |
| 20260508145448 | 63 | 69 | 0.0 | 0.9 | 0.00 | 0.01 | 0.01 | 55 | 1020.0 |
| 20260508144945 | 63 | 56 | 0.9 | 1.7 | 0.00 | 0.01 | 0.01 | 56 | 1020.0 |
| 20260508144442 | 63 | 74 | 2.6 | 2.6 | 0.00 | 0.01 | 0.01 | 53 | 1020.2 |
| 20260508143940 | 62 | 152 | 1.7 | 2.6 | 0.00 | 0.01 | 0.01 | 56 | 1019.9 |
| 20260508143437 | 63 | 163 | 2.6 | 2.6 | 0.00 | 0.01 | 0.01 | 58 | 1020.1 |
| 20260508142933 | 62 | 152 | 0.0 | 0.9 | 0.00 | 0.01 | 0.01 | 56 | 1020.0 |
| 20260508142431 | 62 | 72 | 0.0 | 0.9 | 0.00 | 0.01 | 0.01 | 57 | 1019.9 |
| 20260508141927 | 62 | 133 | 1.7 | 1.7 | 0.00 | 0.01 | 0.01 | 57 | 1020.2 |
| 20260508141424 | 62 | 179 | 1.7 | 1.7 | 0.00 | 0.01 | 0.01 | 56 | 1020.1 |
| 20260508140921 | 62 | 189 | 1.7 | 2.6 | 0.00 | 0.01 | 0.01 | 59 | 1020.0 |
| 20260508140418 | 62 | 84 | 0.9 | 0.9 | 0.00 | 0.01 | 0.01 | 62 | 1020.0 |
| 20260508135914 | 62 | 31 | 1.7 | 1.7 | 0.00 | 0.01 | 0.01 | 67 | 1020.1 |
| 20260508135411 | 61 | 49 | 0.9 | 1.7 | 0.00 | 0.01 | 0.01 | 66 | 1019.8 |
| 20260508134907 | 61 | 28 | 0.9 | 0.9 | 0.00 | 0.01 | 0.01 | 68 | 1019.8 |
| 20260508134403 | 60 | 26 | 0.0 | 0.9 | 0.00 | 0.01 | 0.01 | 71 | 1019.9 |
| 20260508133900 | 60 | 126 | 0.9 | 0.9 | 0.00 | 0.01 | 0.01 | 71 | 1019.9 |
| 20260508133358 | 60 | 102 | 0.0 | 0.9 | 0.00 | 0.01 | 0.01 | 73 | 1020.1 |
| 20260508132855 | 60 | 114 | 0.9 | 0.9 | 0.00 | 0.01 | 0.01 | 72 | 1019.9 |
| 20260508132353 | 60 | 135 | 1.7 | 1.7 | 0.00 | 0.01 | 0.01 | 71 | 1019.8 |
| 20260508131849 | 59 | 149 | 0.0 | 0.0 | 0.00 | 0.01 | 0.01 | 72 | 1019.7 |
| 20260508131345 | 58 | 103 | 1.7 | 1.7 | 0.00 | 0.01 | 0.01 | 74 | 1019.6 |
| 20260508130842 | 55 | 103 | 0.9 | 0.9 | 0.00 | 0.01 | 0.01 | 83 | 1019.8 |
| 20260508130338 | 53 | 93 | 2.6 | 2.6 | 0.00 | 0.01 | 0.01 | 96 | 1019.7 |
| 20260508125835 | 53 | 101 | 0.0 | 0.9 | 0.00 | 0.01 | 0.01 | 99 | 1019.7 |
| 20260508125331 | 52 | 130 | 0.0 | 0.9 | 0.00 | 0.01 | 0.01 | 99 | 1019.4 |
| 20260508124829 | 52 | 75 | 0.0 | 0.9 | 0.00 | 0.01 | 0.01 | 99 | 1019.5 |
| 20260508124326 | 52 | 57 | 1.7 | 2.6 | 0.00 | 0.01 | 0.01 | 99 | 1019.5 |
| 20260508123824 | 53 | 78 | 0.9 | 0.9 | 0.00 | 0.01 | 0.01 | 99 | 1019.4 |
| 20260508123322 | 52 | 132 | 0.9 | 0.9 | 0.00 | 0.01 | 0.01 | 99 | 1019.5 |
| 20260508122818 | 52 | 132 | 0.9 | 0.9 | 0.00 | 0.01 | 0.01 | 99 | 1019.4 |
| 20260508122315 | 53 | 134 | 0.9 | 1.7 | 0.00 | 0.01 | 0.01 | 99 | 1019.5 |
| 20260508121812 | 52 | 156 | 0.0 | 0.0 | 0.00 | 0.01 | 0.01 | 99 | 1019.4 |
| 20260508121311 | 52 | 151 | 0.0 | 0.0 | 0.00 | 0.01 | 0.01 | 99 | 1019.4 |
| 20260508120808 | 52 | 113 | 0.0 | 0.9 | 0.00 | 0.01 | 0.01 | 99 | 1019.3 |
| 20260508120306 | 51 | 148 | 0.0 | 0.0 | 0.00 | 0.01 | 0.01 | 99 | 1019.2 |
| 20260508115803 | 51 | 77 | 0.9 | 0.9 | 0.00 | 0.01 | 0.01 | 99 | 1019.3 |
| 20260508115300 | 51 | 158 | 0.0 | 0.0 | 0.00 | 0.01 | 0.01 | 99 | 1019.4 |
| 20260508114757 | 52 | 137 | 0.0 | 0.9 | 0.00 | 0.01 | 0.01 | 99 | 1019.1 |
| 20260508114254 | 50 | 164 | 0.0 | 0.0 | 0.00 | 0.01 | 0.01 | 99 | 1019.0 |
| 20260508113750 | 48 | 173 | 0.0 | 0.0 | 0.00 | 0.01 | 0.01 | 99 | 1019.0 |
| 20260508113249 | 48 | 173 | 0.0 | 0.0 | 0.00 | 0.01 | 0.01 | 99 | 1018.7 |
| 20260508112744 | 48 | 162 | 0.0 | 0.0 | 0.00 | 0.01 | 0.01 | 99 | 1018.4 |
| 20260508112241 | 47 | 146 | 0.0 | 0.0 | 0.00 | 0.01 | 0.01 | 99 | 1018.4 |
| 20260508111738 | 47 | 140 | 0.9 | 0.9 | 0.00 | 0.01 | 0.01 | 99 | 1018.3 |
| 20260508111236 | 47 | 166 | 0.0 | 0.0 | 0.00 | 0.01 | 0.01 | 99 | 1018.5 |
| 20260508110732 | 47 | 166 | 0.0 | 0.0 | 0.00 | 0.01 | 0.01 | 99 | 1018.3 |
| 20260508110230 | 47 | 166 | 0.0 | 0.0 | 0.00 | 0.01 | 0.01 | 99 | 1018.5 |
| 20260508105729 | 47 | 166 | 0.0 | 0.0 | 0.00 | 0.01 | 0.01 | 99 | 1018.3 |
| 20260508105226 | 47 | 166 | 0.0 | 0.0 | 0.00 | 0.01 | 0.01 | 99 | 1018.3 |
| 20260508104724 | 47 | 166 | 0.0 | 0.0 | 0.00 | 0.01 | 0.01 | 99 | 1018.1 |
| 20260508104220 | 47 | 166 | 0.0 | 0.0 | 0.00 | 0.01 | 0.01 | 99 | 1018.1 |
| 20260508103718 | 47 | 166 | 0.0 | 0.0 | 0.00 | 0.01 | 0.01 | 99 | 1017.9 |
| 20260508103215 | 47 | 166 | 0.0 | 0.0 | 0.00 | 0.01 | 0.01 | 99 | 1017.5 |
| 20260508102712 | 47 | 166 | 0.0 | 0.0 | 0.00 | 0.01 | 0.01 | 99 | 1017.4 |
| 20260508102210 | 47 | 166 | 0.0 | 0.0 | 0.00 | 0.01 | 0.01 | 99 | 1017.6 |
| 20260508101707 | 47 | 166 | 0.0 | 0.0 | 0.00 | 0.01 | 0.01 | 99 | 1017.5 |
| 20260508101205 | 47 | 166 | 0.0 | 0.0 | 0.00 | 0.01 | 0.01 | 99 | 1017.3 |
| 20260508100702 | 47 | 166 | 0.0 | 0.0 | 0.00 | 0.01 | 0.01 | 99 | 1017.2 |
| 20260508100200 | 47 | 166 | 0.0 | 0.0 | 0.00 | 0.01 | 0.01 | 99 | 1017.4 |
| 20260508095656 | 48 | 166 | 0.0 | 0.0 | 0.00 | 0.01 | 0.01 | 99 | 1017.3 |
| 20260508095153 | 48 | 166 | 0.0 | 0.0 | 0.00 | 0.01 | 0.01 | 99 | 1017.5 |
| 20260508094650 | 48 | 166 | 0.0 | 0.0 | 0.00 | 0.01 | 0.01 | 99 | 1017.4 |
| 20260508094147 | 48 | 165 | 0.0 | 0.0 | 0.07 | 0.01 | 0.01 | 99 | 1017.2 |
| 20260508093644 | 48 | 166 | 0.0 | 0.0 | 0.07 | 0.01 | 0.01 | 99 | 1017.3 |
| 20260508093141 | 49 | 167 | 0.0 | 0.0 | 0.00 | 0.00 | 0.00 | 99 | 1017.3 |
| 20260508092638 | 49 | 167 | 0.0 | 0.0 | 0.00 | 0.00 | 0.00 | 99 | 1017.1 |
| 20260508092137 | 49 | 167 | 0.0 | 0.0 | 0.00 | 0.00 | 0.00 | 99 | 1017.2 |
| 20260508091634 | 49 | 167 | 0.0 | 0.0 | 0.00 | 0.00 | 0.00 | 99 | 1017.0 |
| 20260508091131 | 49 | 167 | 0.0 | 0.0 | 0.00 | 0.00 | 0.00 | 99 | 1017.1 |
| 20260508090629 | 49 | 168 | 0.0 | 0.0 | 0.00 | 0.00 | 0.00 | 99 | 1017.0 |
| 20260508090126 | 49 | 168 | 0.0 | 0.0 | 0.00 | 0.00 | 0.00 | 99 | 1017.1 |
| 20260508085622 | 49 | 168 | 0.0 | 0.0 | 0.00 | 0.00 | 0.00 | 99 | 1016.9 |
| 20260508085119 | 49 | 167 | 0.0 | 0.0 | 0.00 | 0.00 | 0.00 | 99 | 1016.8 |
| 20260508084615 | 50 | 167 | 0.0 | 0.0 | 0.00 | 0.00 | 0.00 | 99 | 1016.9 |
| 20260508084113 | 50 | 166 | 0.0 | 0.0 | 0.00 | 0.00 | 0.00 | 99 | 1016.9 |
| 20260508083610 | 50 | 169 | 0.0 | 0.0 | 0.00 | 0.00 | 0.00 | 99 | 1016.9 |
| 20260508083107 | 50 | 165 | 0.0 | 0.0 | 0.00 | 0.00 | 0.00 | 99 | 1016.7 |
| 20260508082603 | 50 | 134 | 0.9 | 0.9 | 0.00 | 0.00 | 0.00 | 99 | 1016.9 |
| 20260508082100 | 50 | 173 | 0.0 | 0.0 | 0.00 | 0.00 | 0.00 | 99 | 1016.7 |
| 20260508081558 | 50 | 178 | 0.0 | 0.0 | 0.00 | 0.00 | 0.00 | 99 | 1016.8 |
| 20260508081053 | 50 | 195 | 0.0 | 0.0 | 0.00 | 0.00 | 0.00 | 99 | 1016.9 |
| 20260508080552 | 50 | 196 | 0.0 | 0.0 | 0.00 | 0.00 | 0.00 | 99 | 1016.3 |
| 20260508080049 | 51 | 153 | 0.0 | 0.0 | 0.00 | 0.00 | 0.00 | 99 | 1016.5 |
| 20260508075545 | 51 | 157 | 0.0 | 0.0 | 0.00 | 0.00 | 0.00 | 99 | 1016.4 |
| 20260508075043 | 51 | 143 | 0.0 | 0.9 | 0.00 | 0.00 | 0.00 | 99 | 1016.3 |
| 20260508074540 | 51 | 73 | 0.9 | 0.9 | 0.00 | 0.00 | 0.00 | 99 | 1016.4 |
| 20260508074037 | 51 | 175 | 0.0 | 0.0 | 0.00 | 0.00 | 0.00 | 99 | 1016.5 |
| 20260508073534 | 51 | 193 | 0.0 | 0.0 | 0.00 | 0.00 | 0.00 | 99 | 1016.5 |
| 20260508073032 | 51 | 195 | 0.0 | 0.0 | 0.00 | 0.00 | 0.00 | 99 | 1016.3 |
| 20260508072527 | 51 | 196 | 0.0 | 0.0 | 0.00 | 0.00 | 0.00 | 99 | 1016.4 |
| 20260508072025 | 51 | 200 | 0.0 | 0.0 | 0.00 | 0.00 | 0.00 | 99 | 1016.4 |
| 20260508071523 | 51 | 173 | 0.0 | 0.0 | 0.00 | 0.00 | 0.00 | 99 | 1016.3 |
| 20260508071020 | 51 | 185 | 0.0 | 0.0 | 0.00 | 0.00 | 0.00 | 99 | 1016.3 |
| 20260508070518 | 51 | 194 | 0.0 | 0.0 | 0.00 | 0.00 | 0.00 | 99 | 1016.3 |
| 20260508070016 | 51 | 175 | 0.0 | 0.0 | 0.00 | 0.00 | 0.00 | 99 | 1016.3 |
| 20260508065513 | 51 | 175 | 0.0 | 0.0 | 0.00 | 0.00 | 0.00 | 99 | 1016.2 |
| 20260508065011 | 51 | 175 | 0.0 | 0.0 | 0.00 | 0.00 | 0.00 | 99 | 1015.9 |
| 20260508064509 | 51 | 175 | 0.0 | 0.0 | 0.00 | 0.00 | 0.00 | 99 | 1016.2 |
| 20260508064006 | 51 | 175 | 0.0 | 0.0 | 0.00 | 0.00 | 0.00 | 99 | 1016.1 |
| 20260508063503 | 51 | 175 | 0.0 | 0.0 | 0.00 | 0.00 | 0.00 | 99 | 1016.1 |
| 20260508063001 | 51 | 153 | 0.0 | 0.0 | 0.00 | 0.00 | 0.00 | 99 | 1016.0 |
| 20260508062459 | 52 | 179 | 0.0 | 0.0 | 0.00 | 0.00 | 0.00 | 99 | 1016.1 |
| 20260508061955 | 52 | 189 | 0.0 | 0.0 | 0.00 | 0.00 | 0.00 | 99 | 1016.1 |
| 20260508061453 | 52 | 160 | 0.0 | 0.0 | 0.00 | 0.00 | 0.00 | 99 | 1016.2 |
| 20260508060949 | 52 | 172 | 0.0 | 0.0 | 0.00 | 0.00 | 0.00 | 99 | 1016.3 |
| 20260508060447 | 52 | 166 | 0.0 | 0.0 | 0.00 | 0.00 | 0.00 | 99 | 1016.2 |
| 20260508055943 | 52 | 164 | 0.0 | 0.0 | 0.00 | 0.00 | 0.00 | 99 | 1016.1 |
| 20260508055439 | 52 | 178 | 0.0 | 0.0 | 0.00 | 0.00 | 0.00 | 99 | 1016.3 |
| 20260508054936 | 53 | 178 | 0.0 | 0.0 | 0.00 | 0.00 | 0.00 | 99 | 1016.3 |
| 20260508054433 | 53 | 178 | 0.0 | 0.0 | 0.00 | 0.00 | 0.00 | 99 | 1016.3 |
| 20260508053930 | 53 | 179 | 0.0 | 0.0 | 0.00 | 0.00 | 0.00 | 99 | 1016.1 |
| 20260508053427 | 53 | 179 | 0.0 | 0.0 | 0.00 | 0.00 | 0.00 | 99 | 1016.3 |
| 20260508052925 | 53 | 179 | 0.0 | 0.0 | 0.00 | 0.00 | 0.00 | 99 | 1016.1 |
| 20260508052417 | 53 | 189 | 0.0 | 0.0 | 0.00 | 0.00 | 0.00 | 99 | 1016.0 |
| 20260508051913 | 53 | 175 | 0.0 | 0.0 | 0.00 | 0.00 | 0.00 | 99 | 1016.0 |
| 20260508051409 | 53 | 174 | 0.0 | 0.0 | 0.00 | 0.00 | 0.00 | 99 | 1016.0 |
| 20260508050904 | 53 | 175 | 0.0 | 0.0 | 0.00 | 0.00 | 0.00 | 99 | 1016.1 |
| 20260508050402 | 53 | 175 | 0.0 | 0.0 | 0.00 | 0.00 | 0.00 | 99 | 1015.9 |
| 20260508045857 | 53 | 175 | 0.0 | 0.0 | 0.00 | 0.00 | 0.00 | 99 | 1016.0 |
| 20260508045356 | 53 | 175 | 0.0 | 0.0 | 0.00 | 0.00 | 0.00 | 99 | 1016.0 |
| 20260508044853 | 53 | 175 | 0.0 | 0.0 | 0.00 | 0.00 | 0.00 | 99 | 1015.7 |
| 20260508044349 | 53 | 174 | 0.0 | 0.0 | 0.00 | 0.00 | 0.00 | 99 | 1015.6 |
| 20260508043845 | 54 | 176 | 0.0 | 0.0 | 0.00 | 0.00 | 0.00 | 99 | 1015.7 |
| 20260508043342 | 54 | 174 | 0.0 | 0.0 | 0.00 | 0.00 | 0.00 | 99 | 1015.9 |
| 20260508042839 | 54 | 182 | 0.0 | 0.0 | 0.00 | 0.00 | 0.00 | 99 | 1015.7 |
| 20260508042337 | 54 | 156 | 0.0 | 0.0 | 0.00 | 0.00 | 0.00 | 99 | 1015.8 |
| 20260508041834 | 54 | 171 | 0.0 | 0.0 | 0.00 | 0.00 | 0.00 | 99 | 1015.6 |
| 20260508041330 | 55 | 195 | 0.0 | 0.0 | 0.00 | 0.00 | 0.00 | 99 | 1015.6 |
| 20260508040827 | 54 | 183 | 0.0 | 0.0 | 0.00 | 0.00 | 0.00 | 99 | 1015.7 |
| 20260508040324 | 55 | 182 | 0.0 | 0.0 | 0.00 | 0.00 | 0.00 | 99 | 1015.7 |
| 20260508035821 | 55 | 183 | 0.0 | 0.0 | 0.00 | 1.93 | 1.93 | 99 | 1015.3 |
| 20260508035319 | 55 | 182 | 0.0 | 0.0 | 0.00 | 1.93 | 1.93 | 99 | 1015.7 |
| 20260508034815 | 55 | 186 | 0.0 | 0.0 | 0.00 | 1.93 | 1.93 | 99 | 1015.6 |
| 20260508034313 | 55 | 192 | 0.0 | 0.0 | 0.00 | 1.93 | 1.93 | 99 | 1015.6 |
| 20260508033809 | 55 | 166 | 0.0 | 0.0 | 0.00 | 1.93 | 1.93 | 99 | 1015.3 |
| 20260508033308 | 55 | 174 | 0.0 | 0.0 | 0.00 | 1.93 | 1.93 | 99 | 1015.6 |
| 20260508032805 | 55 | 174 | 0.0 | 0.0 | 0.00 | 1.93 | 1.93 | 99 | 1015.8 |
| 20260508032306 | 55 | 152 | 0.0 | 0.0 | 0.00 | 1.93 | 1.93 | 99 | 1015.6 |
| 20260508031758 | 56 | 163 | 0.0 | 0.9 | 0.00 | 1.93 | 1.93 | 99 | 1015.6 |
| 20260508031255 | 56 | 182 | 0.0 | 0.0 | 0.00 | 1.93 | 1.93 | 99 | 1015.6 |
| 20260508030751 | 56 | 182 | 0.0 | 0.0 | 0.00 | 1.93 | 1.93 | 99 | 1015.6 |
| 20260508030249 | 56 | 184 | 0.0 | 0.0 | 0.00 | 1.93 | 1.93 | 99 | 1015.3 |
| 20260508025745 | 56 | 184 | 0.0 | 0.0 | 0.00 | 1.93 | 1.93 | 99 | 1015.4 |
| 20260508025242 | 56 | 184 | 0.0 | 0.0 | 0.00 | 1.93 | 1.93 | 99 | 1015.3 |
| 20260508024738 | 56 | 179 | 0.0 | 0.0 | 0.00 | 1.93 | 1.93 | 99 | 1015.3 |
| 20260508024235 | 56 | 204 | 0.0 | 0.0 | 0.00 | 1.93 | 1.93 | 99 | 1015.3 |
| 20260508023732 | 56 | 186 | 0.0 | 0.0 | 0.00 | 1.93 | 1.93 | 99 | 1015.1 |
| 20260508023230 | 56 | 192 | 0.0 | 0.0 | 0.00 | 1.93 | 1.93 | 99 | 1015.3 |
| 20260508022726 | 57 | 143 | 0.0 | 0.0 | 0.00 | 1.93 | 1.93 | 99 | 1015.2 |
| 20260508022222 | 57 | 164 | 0.0 | 0.0 | 0.00 | 1.93 | 1.93 | 99 | 1015.1 |
| 20260508021719 | 57 | 185 | 0.0 | 0.0 | 0.00 | 1.93 | 1.93 | 99 | 1014.9 |
| 20260508021214 | 57 | 185 | 0.0 | 0.0 | 0.00 | 1.93 | 1.93 | 99 | 1014.8 |
| 20260508020712 | 57 | 210 | 0.9 | 0.9 | 0.00 | 1.93 | 1.93 | 99 | 1014.8 |
| 20260508020209 | 57 | 183 | 0.0 | 0.0 | 0.00 | 1.93 | 1.93 | 99 | 1014.8 |
| 20260508015706 | 57 | 166 | 0.0 | 0.0 | 0.00 | 1.93 | 1.93 | 99 | 1014.9 |
| 20260508015203 | 57 | 164 | 0.0 | 0.0 | 0.00 | 1.93 | 1.93 | 99 | 1014.8 |
| 20260508014700 | 57 | 163 | 0.0 | 0.0 | 0.00 | 1.93 | 1.93 | 99 | 1014.4 |
| 20260508014156 | 57 | 130 | 0.0 | 0.9 | 0.00 | 1.93 | 1.93 | 99 | 1014.4 |
| 20260508013652 | 57 | 191 | 0.0 | 0.0 | 0.00 | 1.93 | 1.93 | 99 | 1014.5 |
| 20260508013149 | 57 | 135 | 0.0 | 0.0 | 0.00 | 1.93 | 1.93 | 99 | 1014.1 |
| 20260508012647 | 57 | 67 | 0.0 | 0.9 | 0.00 | 1.93 | 1.93 | 99 | 1014.1 |
| 20260508012143 | 58 | 59 | 0.9 | 1.7 | 0.00 | 1.93 | 1.93 | 99 | 1014.4 |
| 20260508011642 | 57 | 211 | 0.9 | 0.9 | 0.00 | 1.93 | 1.93 | 99 | 1014.4 |
| 20260508011139 | 57 | 179 | 0.9 | 0.9 | 0.00 | 1.93 | 1.93 | 99 | 1014.3 |
| 20260508010636 | 57 | 171 | 0.9 | 1.7 | 0.00 | 1.93 | 1.93 | 99 | 1014.1 |
| 20260508010134 | 57 | 200 | 0.9 | 0.9 | 0.00 | 1.93 | 1.93 | 99 | 1013.8 |
| 20260508005630 | 57 | 145 | 0.0 | 0.0 | 0.00 | 1.93 | 1.93 | 99 | 1013.6 |
| 20260508005127 | 57 | 136 | 0.0 | 0.0 | 0.00 | 1.93 | 1.93 | 99 | 1013.5 |
| 20260508004622 | 57 | 141 | 0.0 | 0.0 | 0.00 | 1.93 | 1.93 | 99 | 1013.4 |
| 20260508004119 | 57 | 103 | 0.0 | 0.0 | 0.00 | 1.93 | 1.93 | 99 | 1013.1 |
| 20260508003616 | 57 | 51 | 1.7 | 1.7 | 0.00 | 1.93 | 1.93 | 99 | 1013.1 |
| 20260508003114 | 57 | 50 | 2.6 | 2.6 | 0.00 | 1.93 | 1.93 | 99 | 1013.2 |
| 20260508002610 | 57 | 49 | 0.9 | 0.9 | 0.00 | 1.93 | 1.93 | 99 | 1013.2 |
| 20260508002108 | 57 | 131 | 1.7 | 1.7 | 0.00 | 1.93 | 1.93 | 99 | 1013.0 |
| 20260508001608 | 57 | 66 | 2.6 | 4.3 | 0.00 | 1.93 | 1.93 | 99 | 1012.4 |
| 20260508001104 | 57 | 12 | 2.6 | 2.6 | 0.00 | 1.93 | 1.93 | 99 | 1012.5 |
| 20260508000600 | 58 | 64 | 2.6 | 4.3 | 0.00 | 1.93 | 1.93 | 99 | 1012.2 |
| 20260508000057 | 58 | 56 | 0.9 | 0.9 | 0.00 | 1.93 | 1.93 | 99 | 1012.7 |
| 20260507235554 | 58 | 86 | 0.9 | 1.7 | 0.00 | 1.93 | 1.93 | 99 | 1012.4 |
| 20260507235052 | 58 | 152 | 0.9 | 0.9 | 0.00 | 1.93 | 1.93 | 99 | 1012.0 |
| 20260507234548 | 58 | 253 | 0.0 | 0.9 | 0.00 | 1.93 | 1.93 | 99 | 1011.9 |
| 20260507234044 | 58 | 49 | 2.6 | 4.3 | 0.00 | 1.93 | 1.93 | 99 | 1011.7 |
| 20260507233541 | 58 | 316 | 1.7 | 1.7 | 0.00 | 1.93 | 1.93 | 99 | 1011.9 |
| 20260507233040 | 58 | 43 | 1.7 | 2.6 | 0.00 | 1.93 | 1.93 | 99 | 1011.9 |
| 20260507232536 | 59 | 60 | 1.7 | 2.6 | 0.00 | 1.93 | 1.93 | 99 | 1011.8 |
| 20260507232033 | 58 | 40 | 0.9 | 1.7 | 0.00 | 1.93 | 1.93 | 99 | 1011.8 |
| 20260507231529 | 58 | 81 | 0.9 | 0.9 | 0.00 | 1.93 | 1.93 | 99 | 1011.8 |
| 20260507231027 | 58 | 114 | 0.0 | 0.9 | 0.00 | 1.93 | 1.93 | 99 | 1011.6 |
| 20260507230524 | 58 | 31 | 2.6 | 4.3 | 0.00 | 1.93 | 1.93 | 99 | 1011.4 |
| 20260507230020 | 58 | 10 | 0.9 | 1.7 | 0.00 | 1.93 | 1.93 | 99 | 1011.3 |
| 20260507225515 | 58 | 29 | 3.5 | 5.2 | 0.00 | 1.93 | 1.93 | 99 | 1011.3 |
| 20260507225012 | 58 | 66 | 2.6 | 5.2 | 0.05 | 1.93 | 1.93 | 99 | 1011.0 |
| 20260507224508 | 59 | 94 | 3.5 | 4.3 | 0.17 | 1.93 | 1.93 | 99 | 1011.1 |
| 20260507224004 | 59 | 38 | 2.6 | 4.3 | 0.66 | 1.92 | 1.92 | 99 | 1011.0 |
| 20260507223500 | 59 | 89 | 1.7 | 2.6 | 1.09 | 1.89 | 1.89 | 99 | 1011.0 |
| 20260507222958 | 59 | 70 | 4.3 | 6.1 | 0.71 | 1.78 | 1.78 | 99 | 1011.5 |
| 20260507222454 | 59 | 112 | 3.5 | 4.3 | 0.59 | 1.71 | 1.71 | 99 | 1010.8 |
| 20260507221951 | 59 | 116 | 1.7 | 4.3 | 1.04 | 1.66 | 1.66 | 99 | 1010.8 |
| 20260507221447 | 59 | 71 | 0.9 | 1.7 | 2.29 | 1.61 | 1.61 | 99 | 1010.7 |
| 20260507220944 | 60 | 68 | 1.7 | 2.6 | 1.91 | 1.49 | 1.49 | 99 | 1011.0 |
| 20260507220442 | 60 | 73 | 2.6 | 2.6 | 0.54 | 1.23 | 1.23 | 99 | 1010.4 |
| 20260507215938 | 61 | 25 | 5.2 | 9.6 | 0.59 | 1.17 | 1.17 | 99 | 1010.1 |
| 20260507215435 | 61 | 96 | 0.9 | 0.9 | 1.02 | 1.14 | 1.14 | 99 | 1010.2 |
| 20260507214932 | 61 | 310 | 1.7 | 1.7 | 1.28 | 1.07 | 1.07 | 98 | 1010.3 |
| 20260507214425 | 62 | 339 | 2.6 | 4.3 | 0.78 | 0.97 | 0.97 | 96 | 1010.8 |
| 20260507213920 | 62 | 93 | 3.5 | 4.3 | 0.12 | 0.86 | 0.86 | 94 | 1009.3 |
| 20260507213417 | 63 | 92 | 2.6 | 5.2 | 0.00 | 0.84 | 0.84 | 91 | 1009.3 |
| 20260507212914 | 64 | 33 | 1.7 | 2.6 | 0.00 | 0.84 | 0.84 | 91 | 1009.0 |
| 20260507212409 | 64 | 10 | 4.3 | 5.2 | 0.00 | 0.84 | 0.84 | 91 | 1008.8 |
| 20260507211906 | 66 | 48 | 3.5 | 4.3 | 0.00 | 0.84 | 0.84 | 88 | 1008.8 |
| 20260507211402 | 67 | 347 | 3.5 | 6.1 | 0.00 | 0.84 | 0.84 | 85 | 1009.3 |
| 20260507210859 | 71 | 40 | 13.0 | 19.1 | 0.00 | 0.84 | 0.84 | 80 | 1007.8 |
| 20260507210356 | 75 | 268 | 2.6 | 5.2 | 0.00 | 0.84 | 0.84 | 77 | 1008.5 |
| 20260507205853 | 76 | 47 | 0.9 | 0.9 | 0.00 | 0.84 | 0.84 | 75 | 1008.4 |
| 20260507205350 | 75 | 159 | 0.0 | 0.0 | 0.00 | 0.84 | 0.84 | 71 | 1008.1 |
| 20260507204847 | 76 | 184 | 1.7 | 1.7 | 0.00 | 0.84 | 0.84 | 70 | 1008.4 |
| 20260507204343 | 76 | 190 | 0.9 | 0.9 | 0.00 | 0.84 | 0.84 | 70 | 1008.5 |
| 20260507203841 | 75 | 210 | 0.0 | 0.0 | 0.00 | 0.84 | 0.84 | 69 | 1008.7 |
| 20260507203338 | 75 | 212 | 0.9 | 0.9 | 0.00 | 0.84 | 0.84 | 70 | 1008.6 |
| 20260507202834 | 75 | 193 | 0.9 | 0.9 | 0.00 | 0.84 | 0.84 | 70 | 1008.6 |
| 20260507202331 | 75 | 206 | 1.7 | 1.7 | 0.00 | 0.84 | 0.84 | 70 | 1008.7 |
| 20260507201826 | 75 | 162 | 2.6 | 2.6 | 0.00 | 0.84 | 0.84 | 70 | 1008.8 |
| 20260507201322 | 76 | 214 | 2.6 | 2.6 | 0.00 | 0.84 | 0.84 | 71 | 1009.0 |
| 20260507200819 | 76 | 189 | 2.6 | 2.6 | 0.00 | 0.84 | 0.84 | 70 | 1008.7 |
| 20260507200314 | 76 | 219 | 0.9 | 1.7 | 0.00 | 0.84 | 0.84 | 68 | 1009.0 |
| 20260507195811 | 76 | 284 | 1.7 | 2.6 | 0.00 | 0.84 | 0.84 | 68 | 1008.9 |
| 20260507195308 | 77 | 211 | 0.9 | 1.7 | 0.00 | 0.84 | 0.84 | 68 | 1009.0 |
| 20260507194806 | 77 | 196 | 2.6 | 4.3 | 0.00 | 0.84 | 0.84 | 69 | 1009.2 |
| 20260507194301 | 76 | 198 | 0.9 | 0.9 | 0.00 | 0.84 | 0.84 | 73 | 1008.9 |
| 20260507193758 | 77 | 219 | 3.5 | 4.3 | 0.00 | 0.84 | 0.84 | 68 | 1009.1 |
| 20260507193255 | 77 | 199 | 4.3 | 6.1 | 0.00 | 0.84 | 0.84 | 71 | 1009.5 |
| 20260507192751 | 77 | 224 | 1.7 | 1.7 | 0.00 | 0.84 | 0.84 | 72 | 1009.3 |
| 20260507192248 | 76 | 355 | 4.3 | 5.2 | 0.00 | 0.84 | 0.84 | 72 | 1009.6 |
| 20260507191744 | 76 | 228 | 2.6 | 2.6 | 0.00 | 0.84 | 0.84 | 73 | 1009.5 |
| 20260507191241 | 76 | 253 | 3.5 | 4.3 | 0.00 | 0.84 | 0.84 | 71 | 1009.4 |
| 20260507190738 | 76 | 308 | 0.9 | 1.7 | 0.00 | 0.84 | 0.84 | 70 | 1009.5 |
| 20260507190236 | 76 | 283 | 2.6 | 2.6 | 0.00 | 0.84 | 0.84 | 74 | 1009.7 |
| 20260507185735 | 75 | 213 | 3.5 | 4.3 | 0.00 | 0.84 | 0.84 | 75 | 1009.7 |
| 20260507185231 | 74 | 272 | 2.6 | 5.2 | 0.00 | 0.84 | 0.84 | 74 | 1009.7 |
| 20260507184729 | 75 | 335 | 2.6 | 2.6 | 0.00 | 0.84 | 0.84 | 75 | 1009.9 |
| 20260507184227 | 74 | 250 | 2.6 | 2.6 | 0.00 | 0.84 | 0.84 | 76 | 1009.9 |
| 20260507183723 | 74 | 218 | 0.0 | 0.9 | 0.00 | 0.84 | 0.84 | 78 | 1009.7 |
| 20260507183220 | 73 | 202 | 2.6 | 2.6 | 0.00 | 0.84 | 0.84 | 78 | 1009.8 |
| 20260507182718 | 73 | 333 | 3.5 | 5.2 | 0.00 | 0.84 | 0.84 | 77 | 1009.6 |
| 20260507182212 | 73 | 234 | 3.5 | 5.2 | 0.00 | 0.84 | 0.84 | 79 | 1009.6 |
| 20260507181709 | 73 | 224 | 3.5 | 4.3 | 0.00 | 0.84 | 0.84 | 79 | 1009.9 |
| 20260507181206 | 72 | 232 | 0.9 | 1.7 | 0.00 | 0.84 | 0.84 | 80 | 1009.6 |
| 20260507180702 | 72 | 336 | 4.3 | 5.2 | 0.00 | 0.84 | 0.84 | 79 | 1009.9 |
| 20260507180159 | 71 | 274 | 3.5 | 5.2 | 0.00 | 0.84 | 0.84 | 81 | 1009.9 |
| 20260507175655 | 71 | 223 | 0.9 | 1.7 | 0.00 | 0.84 | 0.84 | 84 | 1010.2 |
| 20260507175147 | 70 | 175 | 0.9 | 1.7 | 0.00 | 0.84 | 0.84 | 86 | 1010.4 |
| 20260507174644 | 70 | 259 | 2.6 | 4.3 | 0.00 | 0.84 | 0.84 | 86 | 1010.4 |
| 20260507174142 | 70 | 247 | 3.5 | 4.3 | 0.00 | 0.84 | 0.84 | 85 | 1010.7 |
| 20260507173638 | 70 | 217 | 0.0 | 0.9 | 0.00 | 0.84 | 0.84 | 88 | 1010.5 |
| 20260507173135 | 70 | 195 | 0.0 | 0.9 | 0.00 | 0.84 | 0.84 | 91 | 1010.9 |
| 20260507172631 | 70 | 335 | 1.7 | 1.7 | 0.00 | 0.84 | 0.84 | 91 | 1010.8 |
| 20260507172129 | 69 | 227 | 0.9 | 1.7 | 0.00 | 0.84 | 0.84 | 91 | 1010.7 |
| 20260507171624 | 69 | 209 | 0.0 | 0.0 | 0.00 | 0.84 | 0.84 | 93 | 1010.3 |
| 20260507171121 | 68 | 232 | 1.7 | 1.7 | 0.00 | 0.84 | 0.84 | 94 | 1010.7 |
| 20260507170618 | 67 | 227 | 1.7 | 1.7 | 0.00 | 0.84 | 0.84 | 96 | 1010.5 |
| 20260507170115 | 67 | 218 | 0.9 | 0.9 | 0.00 | 0.84 | 0.84 | 98 | 1010.9 |
| 20260507165611 | 67 | 325 | 2.6 | 2.6 | 0.00 | 0.84 | 0.84 | 99 | 1011.0 |
| 20260507165107 | 67 | 195 | 0.0 | 0.0 | 0.00 | 0.84 | 0.84 | 99 | 1011.0 |
| 20260507164604 | 67 | 311 | 2.6 | 2.6 | 0.00 | 0.84 | 0.84 | 99 | 1010.8 |
| 20260507164100 | 66 | 213 | 0.9 | 0.9 | 0.00 | 0.84 | 0.84 | 99 | 1010.4 |
| 20260507163558 | 67 | 227 | 0.9 | 1.7 | 0.00 | 0.84 | 0.84 | 99 | 1010.8 |
| 20260507163056 | 66 | 295 | 1.7 | 1.7 | 0.00 | 0.84 | 0.84 | 99 | 1010.9 |
| 20260507162555 | 66 | 211 | 0.9 | 0.9 | 0.00 | 0.84 | 0.84 | 99 | 1010.8 |
| 20260507162053 | 66 | 201 | 0.0 | 0.9 | 0.00 | 0.84 | 0.84 | 99 | 1011.0 |
| 20260507161549 | 66 | 153 | 0.0 | 0.9 | 0.00 | 0.84 | 0.84 | 99 | 1011.0 |
| 20260507161046 | 66 | 222 | 0.9 | 1.7 | 0.00 | 0.84 | 0.84 | 99 | 1011.3 |
| 20260507160542 | 67 | 239 | 0.0 | 0.9 | 0.00 | 0.84 | 0.84 | 99 | 1011.4 |
| 20260507160038 | 66 | 273 | 1.7 | 1.7 | 0.00 | 0.84 | 0.84 | 99 | 1011.3 |
| 20260507155534 | 66 | 219 | 0.9 | 1.7 | 0.00 | 0.84 | 0.84 | 99 | 1010.7 |
| 20260507155031 | 65 | 263 | 1.7 | 1.7 | 0.00 | 0.84 | 0.84 | 99 | 1010.9 |
| 20260507154528 | 66 | 324 | 1.7 | 1.7 | 0.00 | 0.84 | 0.84 | 99 | 1010.9 |
| 20260507154025 | 66 | 208 | 0.0 | 0.0 | 0.00 | 0.84 | 0.84 | 99 | 1010.7 |
| 20260507153521 | 66 | 312 | 2.6 | 2.6 | 0.00 | 0.84 | 0.84 | 99 | 1010.2 |
| 20260507153018 | 66 | 96 | 0.0 | 0.9 | 0.00 | 0.84 | 0.84 | 99 | 1009.9 |
| 20260507152513 | 66 | 172 | 0.9 | 0.9 | 0.00 | 0.84 | 0.84 | 99 | 1009.8 |
| 20260507152010 | 66 | 156 | 0.9 | 1.7 | 0.00 | 0.84 | 0.84 | 99 | 1009.7 |
| 20260507151507 | 66 | 172 | 0.9 | 0.9 | 0.00 | 0.84 | 0.84 | 99 | 1010.1 |
| 20260507151004 | 66 | 184 | 0.0 | 0.0 | 0.00 | 0.84 | 0.84 | 99 | 1010.3 |
| 20260507150500 | 65 | 186 | 0.0 | 0.0 | 0.00 | 0.84 | 0.84 | 99 | 1010.5 |
| 20260507145956 | 65 | 190 | 0.0 | 0.0 | 0.05 | 0.84 | 0.84 | 99 | 1010.9 |